sensor_id;sensor_type;location;lat;lon;timestamp;temperature;humidity
40960;DHT22;27842;52.272;8.052;2022-10-15T00:00:46;14.00;99.90
40960;DHT22;27842;52.272;8.052;2022-10-15T00:03:12;14.00;99.90
40960;DHT22;27842;52.272;8.052;2022-10-15T00:05:39;14.00;99.90
40960;DHT22;27842;52.272;8.052;2022-10-15T00:08:06;13.90;99.90
40960;DHT22;27842;52.272;8.052;2022-10-15T00:10:32;14.00;99.90
40960;DHT22;27842;52.272;8.052;2022-10-15T00:12:58;13.90;99.90
40960;DHT22;27842;52.272;8.052;2022-10-15T00:15:23;13.90;99.90
40960;DHT22;27842;52.272;8.052;2022-10-15T00:17:49;13.90;99.90
40960;DHT22;27842;52.272;8.052;2022-10-15T00:20:15;13.90;99.90
40960;DHT22;27842;52.272;8.052;2022-10-15T00:22:41;13.90;99.90
40960;DHT22;27842;52.272;8.052;2022-10-15T00:25:10;13.90;99.90
40960;DHT22;27842;52.272;8.052;2022-10-15T00:27:36;13.90;99.90
40960;DHT22;27842;52.272;8.052;2022-10-15T00:30:03;13.90;99.90
40960;DHT22;27842;52.272;8.052;2022-10-15T00:32:30;13.90;99.90
40960;DHT22;27842;52.272;8.052;2022-10-15T00:34:56;13.90;99.90
40960;DHT22;27842;52.272;8.052;2022-10-15T00:37:22;13.90;99.90
40960;DHT22;27842;52.272;8.052;2022-10-15T00:39:48;14.00;99.90
40960;DHT22;27842;52.272;8.052;2022-10-15T00:42:13;13.90;99.90
40960;DHT22;27842;52.272;8.052;2022-10-15T00:47:49;13.90;99.90
40960;DHT22;27842;52.272;8.052;2022-10-15T00:50:11;13.90;99.90
40960;DHT22;27842;52.272;8.052;2022-10-15T00:53:02;13.90;99.90
40960;DHT22;27842;52.272;8.052;2022-10-15T00:55:30;13.90;99.90
40960;DHT22;27842;52.272;8.052;2022-10-15T00:58:17;13.90;99.90
40960;DHT22;27842;52.272;8.052;2022-10-15T01:00:46;13.90;99.90
40960;DHT22;27842;52.272;8.052;2022-10-15T01:03:13;13.90;99.90
40960;DHT22;27842;52.272;8.052;2022-10-15T01:05:39;13.90;99.90
40960;DHT22;27842;52.272;8.052;2022-10-15T01:08:05;13.90;99.90
40960;DHT22;27842;52.272;8.052;2022-10-15T01:13:45;13.90;99.90
40960;DHT22;27842;52.272;8.052;2022-10-15T01:18:55;13.90;99.90
40960;DHT22;27842;52.272;8.052;2022-10-15T01:21:47;13.90;99.90
40960;DHT22;27842;52.272;8.052;2022-10-15T01:24:50;13.80;99.90
40960;DHT22;27842;52.272;8.052;2022-10-15T01:28:15;13.80;99.90
40960;DHT22;27842;52.272;8.052;2022-10-15T01:30:26;13.80;99.90
40960;DHT22;27842;52.272;8.052;2022-10-15T01:33:08;13.80;99.90
40960;DHT22;27842;52.272;8.052;2022-10-15T01:35:47;13.80;99.90
40960;DHT22;27842;52.272;8.052;2022-10-15T01:38:48;13.80;99.90
40960;DHT22;27842;52.272;8.052;2022-10-15T01:41:30;13.80;99.90
40960;DHT22;27842;52.272;8.052;2022-10-15T01:44:12;13.90;99.90
40960;DHT22;27842;52.272;8.052;2022-10-15T01:46:44;13.90;99.90
40960;DHT22;27842;52.272;8.052;2022-10-15T01:49:12;13.90;99.90
40960;DHT22;27842;52.272;8.052;2022-10-15T01:51:40;13.90;99.90
40960;DHT22;27842;52.272;8.052;2022-10-15T01:54:11;13.90;99.90
40960;DHT22;27842;52.272;8.052;2022-10-15T01:56:39;13.90;99.90
40960;DHT22;27842;52.272;8.052;2022-10-15T01:59:07;13.90;99.90
40960;DHT22;27842;52.272;8.052;2022-10-15T02:01:34;13.90;99.90
40960;DHT22;27842;52.272;8.052;2022-10-15T02:03:59;13.80;99.90
40960;DHT22;27842;52.272;8.052;2022-10-15T02:06:33;13.90;99.90
40960;DHT22;27842;52.272;8.052;2022-10-15T02:14:15;13.80;99.90
40960;DHT22;27842;52.272;8.052;2022-10-15T02:16:54;13.80;99.90
40960;DHT22;27842;52.272;8.052;2022-10-15T02:22:08;13.90;99.90
40960;DHT22;27842;52.272;8.052;2022-10-15T02:24:56;13.80;99.90
40960;DHT22;27842;52.272;8.052;2022-10-15T02:27:24;13.80;99.90
40960;DHT22;27842;52.272;8.052;2022-10-15T02:29:52;13.80;99.90
40960;DHT22;27842;52.272;8.052;2022-10-15T02:32:20;13.80;99.90
40960;DHT22;27842;52.272;8.052;2022-10-15T02:34:47;13.80;99.90
40960;DHT22;27842;52.272;8.052;2022-10-15T02:37:14;13.80;99.90
40960;DHT22;27842;52.272;8.052;2022-10-15T02:39:42;13.80;99.90
40960;DHT22;27842;52.272;8.052;2022-10-15T02:42:08;13.80;99.90
40960;DHT22;27842;52.272;8.052;2022-10-15T02:44:34;13.70;99.90
40960;DHT22;27842;52.272;8.052;2022-10-15T02:47:00;13.80;99.90
40960;DHT22;27842;52.272;8.052;2022-10-15T02:49:25;13.70;99.90
40960;DHT22;27842;52.272;8.052;2022-10-15T02:51:51;13.70;99.90
40960;DHT22;27842;52.272;8.052;2022-10-15T02:54:16;13.70;99.90
40960;DHT22;27842;52.272;8.052;2022-10-15T02:56:42;13.70;99.90
40960;DHT22;27842;52.272;8.052;2022-10-15T02:59:08;13.70;99.90
40960;DHT22;27842;52.272;8.052;2022-10-15T03:01:34;13.70;99.90
40960;DHT22;27842;52.272;8.052;2022-10-15T03:04:00;13.70;99.90
40960;DHT22;27842;52.272;8.052;2022-10-15T03:06:26;13.70;99.90
40960;DHT22;27842;52.272;8.052;2022-10-15T03:08:51;13.70;99.90
40960;DHT22;27842;52.272;8.052;2022-10-15T03:11:17;13.60;99.90
40960;DHT22;27842;52.272;8.052;2022-10-15T03:13:43;13.60;99.90
40960;DHT22;27842;52.272;8.052;2022-10-15T03:16:10;13.60;99.90
40960;DHT22;27842;52.272;8.052;2022-10-15T03:18:35;13.60;99.90
40960;DHT22;27842;52.272;8.052;2022-10-15T03:21:02;13.60;99.90
40960;DHT22;27842;52.272;8.052;2022-10-15T03:23:31;13.60;99.90
40960;DHT22;27842;52.272;8.052;2022-10-15T03:25:56;13.60;99.90
40960;DHT22;27842;52.272;8.052;2022-10-15T03:28:22;13.60;99.90
40960;DHT22;27842;52.272;8.052;2022-10-15T03:30:48;13.50;99.90
40960;DHT22;27842;52.272;8.052;2022-10-15T03:33:13;13.50;99.90
40960;DHT22;27842;52.272;8.052;2022-10-15T03:35:39;13.50;99.90
40960;DHT22;27842;52.272;8.052;2022-10-15T03:38:06;13.50;99.90
40960;DHT22;27842;52.272;8.052;2022-10-15T03:40:31;13.50;99.90
40960;DHT22;27842;52.272;8.052;2022-10-15T03:42:57;13.50;99.90
40960;DHT22;27842;52.272;8.052;2022-10-15T03:45:23;13.50;99.90
40960;DHT22;27842;52.272;8.052;2022-10-15T03:47:49;13.50;99.90
40960;DHT22;27842;52.272;8.052;2022-10-15T03:50:15;13.40;99.90
40960;DHT22;27842;52.272;8.052;2022-10-15T03:52:41;13.40;99.90
40960;DHT22;27842;52.272;8.052;2022-10-15T03:55:08;13.40;99.90
40960;DHT22;27842;52.272;8.052;2022-10-15T03:57:34;13.40;99.90
40960;DHT22;27842;52.272;8.052;2022-10-15T04:00:00;13.40;99.90
40960;DHT22;27842;52.272;8.052;2022-10-15T04:02:26;13.40;99.90
40960;DHT22;27842;52.272;8.052;2022-10-15T04:04:52;13.30;99.90
40960;DHT22;27842;52.272;8.052;2022-10-15T04:07:19;13.30;99.90
40960;DHT22;27842;52.272;8.052;2022-10-15T04:09:44;13.30;99.90
40960;DHT22;27842;52.272;8.052;2022-10-15T04:12:10;13.30;99.90
40960;DHT22;27842;52.272;8.052;2022-10-15T04:14:35;13.30;99.90
40960;DHT22;27842;52.272;8.052;2022-10-15T04:17:01;13.30;99.90
40960;DHT22;27842;52.272;8.052;2022-10-15T04:19:27;13.30;99.90
40960;DHT22;27842;52.272;8.052;2022-10-15T04:21:52;13.30;99.90
40960;DHT22;27842;52.272;8.052;2022-10-15T04:24:18;13.30;99.90
40960;DHT22;27842;52.272;8.052;2022-10-15T04:26:44;13.20;99.90
40960;DHT22;27842;52.272;8.052;2022-10-15T04:29:09;13.30;99.90
40960;DHT22;27842;52.272;8.052;2022-10-15T04:31:35;13.20;99.90
40960;DHT22;27842;52.272;8.052;2022-10-15T04:34:02;13.20;99.90
40960;DHT22;27842;52.272;8.052;2022-10-15T04:36:28;13.20;99.90
40960;DHT22;27842;52.272;8.052;2022-10-15T04:38:53;13.20;99.90
40960;DHT22;27842;52.272;8.052;2022-10-15T04:41:19;13.20;99.90
40960;DHT22;27842;52.272;8.052;2022-10-15T04:43:44;13.20;99.90
40960;DHT22;27842;52.272;8.052;2022-10-15T04:46:10;13.20;99.90
40960;DHT22;27842;52.272;8.052;2022-10-15T04:48:37;13.20;99.90
40960;DHT22;27842;52.272;8.052;2022-10-15T04:51:29;13.20;99.90
40960;DHT22;27842;52.272;8.052;2022-10-15T04:53:55;13.20;99.90
40960;DHT22;27842;52.272;8.052;2022-10-15T04:56:21;13.10;99.90
40960;DHT22;27842;52.272;8.052;2022-10-15T04:58:47;13.20;99.90
40960;DHT22;27842;52.272;8.052;2022-10-15T05:01:16;13.10;99.90
40960;DHT22;27842;52.272;8.052;2022-10-15T05:03:43;13.10;99.90
40960;DHT22;27842;52.272;8.052;2022-10-15T05:06:12;13.10;99.90
40960;DHT22;27842;52.272;8.052;2022-10-15T05:08:38;13.10;99.90
40960;DHT22;27842;52.272;8.052;2022-10-15T05:11:10;13.10;99.90
40960;DHT22;27842;52.272;8.052;2022-10-15T05:13:36;13.10;99.90
40960;DHT22;27842;52.272;8.052;2022-10-15T05:18:44;13.10;99.90
40960;DHT22;27842;52.272;8.052;2022-10-15T05:21:10;13.10;99.90
40960;DHT22;27842;52.272;8.052;2022-10-15T05:23:37;13.20;99.90
40960;DHT22;27842;52.272;8.052;2022-10-15T05:26:09;13.10;99.90
40960;DHT22;27842;52.272;8.052;2022-10-15T05:28:35;13.10;99.90
40960;DHT22;27842;52.272;8.052;2022-10-15T05:31:09;13.10;99.90
40960;DHT22;27842;52.272;8.052;2022-10-15T05:33:36;13.10;99.90
40960;DHT22;27842;52.272;8.052;2022-10-15T05:36:11;13.10;99.90
40960;DHT22;27842;52.272;8.052;2022-10-15T05:38:38;13.10;99.90
40960;DHT22;27842;52.272;8.052;2022-10-15T05:41:03;13.10;99.90
40960;DHT22;27842;52.272;8.052;2022-10-15T05:43:29;13.10;99.90
40960;DHT22;27842;52.272;8.052;2022-10-15T05:45:55;13.10;99.90
40960;DHT22;27842;52.272;8.052;2022-10-15T05:48:21;13.10;99.90
40960;DHT22;27842;52.272;8.052;2022-10-15T05:50:46;13.10;99.90
40960;DHT22;27842;52.272;8.052;2022-10-15T05:53:12;13.10;99.90
40960;DHT22;27842;52.272;8.052;2022-10-15T05:55:38;13.10;99.90
40960;DHT22;27842;52.272;8.052;2022-10-15T05:58:04;13.10;99.90
40960;DHT22;27842;52.272;8.052;2022-10-15T06:00:30;13.00;99.90
40960;DHT22;27842;52.272;8.052;2022-10-15T06:02:56;13.10;99.90
40960;DHT22;27842;52.272;8.052;2022-10-15T06:05:21;13.00;99.90
40960;DHT22;27842;52.272;8.052;2022-10-15T06:07:47;13.00;99.90
40960;DHT22;27842;52.272;8.052;2022-10-15T06:10:12;13.00;99.90
40960;DHT22;27842;52.272;8.052;2022-10-15T06:12:38;13.00;99.90
40960;DHT22;27842;52.272;8.052;2022-10-15T06:15:05;13.00;99.90
40960;DHT22;27842;52.272;8.052;2022-10-15T06:17:30;13.00;99.90
40960;DHT22;27842;52.272;8.052;2022-10-15T06:19:56;13.00;99.90
40960;DHT22;27842;52.272;8.052;2022-10-15T06:22:22;13.00;99.90
40960;DHT22;27842;52.272;8.052;2022-10-15T06:24:47;13.00;99.90
40960;DHT22;27842;52.272;8.052;2022-10-15T06:27:13;13.00;99.90
40960;DHT22;27842;52.272;8.052;2022-10-15T06:29:39;13.00;99.90
40960;DHT22;27842;52.272;8.052;2022-10-15T06:32:08;13.00;99.90
40960;DHT22;27842;52.272;8.052;2022-10-15T06:34:34;13.00;99.90
40960;DHT22;27842;52.272;8.052;2022-10-15T06:36:59;13.00;99.90
40960;DHT22;27842;52.272;8.052;2022-10-15T06:39:25;13.00;99.90
40960;DHT22;27842;52.272;8.052;2022-10-15T06:41:50;13.00;99.90
40960;DHT22;27842;52.272;8.052;2022-10-15T06:44:16;13.00;99.90
40960;DHT22;27842;52.272;8.052;2022-10-15T06:46:42;13.00;99.90
40960;DHT22;27842;52.272;8.052;2022-10-15T06:49:07;13.00;99.90
40960;DHT22;27842;52.272;8.052;2022-10-15T06:51:33;13.00;99.90
40960;DHT22;27842;52.272;8.052;2022-10-15T06:53:59;13.00;99.90
40960;DHT22;27842;52.272;8.052;2022-10-15T06:56:24;13.00;99.90
40960;DHT22;27842;52.272;8.052;2022-10-15T06:58:50;13.00;99.90
40960;DHT22;27842;52.272;8.052;2022-10-15T07:01:16;13.00;99.90
40960;DHT22;27842;52.272;8.052;2022-10-15T07:03:41;13.00;99.90
40960;DHT22;27842;52.272;8.052;2022-10-15T07:06:08;13.00;99.90
40960;DHT22;27842;52.272;8.052;2022-10-15T07:08:34;13.00;99.90
40960;DHT22;27842;52.272;8.052;2022-10-15T07:11:02;13.10;99.90
40960;DHT22;27842;52.272;8.052;2022-10-15T07:13:28;13.00;99.90
40960;DHT22;27842;52.272;8.052;2022-10-15T07:15:54;13.10;99.90
40960;DHT22;27842;52.272;8.052;2022-10-15T07:18:21;13.00;99.90
40960;DHT22;27842;52.272;8.052;2022-10-15T07:20:47;13.10;99.90
40960;DHT22;27842;52.272;8.052;2022-10-15T07:23:12;13.10;99.90
40960;DHT22;27842;52.272;8.052;2022-10-15T07:25:38;13.10;99.90
40960;DHT22;27842;52.272;8.052;2022-10-15T07:28:04;13.10;99.90
40960;DHT22;27842;52.272;8.052;2022-10-15T07:30:31;13.10;99.90
40960;DHT22;27842;52.272;8.052;2022-10-15T07:32:58;13.10;99.90
40960;DHT22;27842;52.272;8.052;2022-10-15T07:35:25;13.10;99.90
40960;DHT22;27842;52.272;8.052;2022-10-15T07:37:50;13.10;99.90
40960;DHT22;27842;52.272;8.052;2022-10-15T07:40:17;13.10;99.90
40960;DHT22;27842;52.272;8.052;2022-10-15T07:42:42;13.10;99.90
40960;DHT22;27842;52.272;8.052;2022-10-15T07:45:08;13.20;99.90
40960;DHT22;27842;52.272;8.052;2022-10-15T07:47:34;13.10;99.90
40960;DHT22;27842;52.272;8.052;2022-10-15T07:49:59;13.10;99.90
40960;DHT22;27842;52.272;8.052;2022-10-15T07:52:25;13.20;99.90
40960;DHT22;27842;52.272;8.052;2022-10-15T07:54:51;13.20;99.90
40960;DHT22;27842;52.272;8.052;2022-10-15T07:57:17;13.20;99.90
40960;DHT22;27842;52.272;8.052;2022-10-15T07:59:42;13.30;99.90
40960;DHT22;27842;52.272;8.052;2022-10-15T08:02:15;13.30;99.90
40960;DHT22;27842;52.272;8.052;2022-10-15T08:04:41;13.30;99.90
40960;DHT22;27842;52.272;8.052;2022-10-15T08:07:07;13.30;99.90
40960;DHT22;27842;52.272;8.052;2022-10-15T08:09:32;13.40;99.90
40960;DHT22;27842;52.272;8.052;2022-10-15T08:11:58;13.40;99.90
40960;DHT22;27842;52.272;8.052;2022-10-15T08:14:24;13.40;99.90
40960;DHT22;27842;52.272;8.052;2022-10-15T08:16:49;13.40;99.90
40960;DHT22;27842;52.272;8.052;2022-10-15T08:19:15;13.40;99.90
40960;DHT22;27842;52.272;8.052;2022-10-15T08:21:45;13.40;99.90
40960;DHT22;27842;52.272;8.052;2022-10-15T08:24:11;13.40;99.90
40960;DHT22;27842;52.272;8.052;2022-10-15T08:26:36;13.50;99.90
40960;DHT22;27842;52.272;8.052;2022-10-15T08:29:02;13.50;99.90
40960;DHT22;27842;52.272;8.052;2022-10-15T08:31:28;13.50;99.90
40960;DHT22;27842;52.272;8.052;2022-10-15T08:33:53;13.50;99.90
40960;DHT22;27842;52.272;8.052;2022-10-15T08:36:19;13.60;99.90
40960;DHT22;27842;52.272;8.052;2022-10-15T08:38:45;13.60;99.90
40960;DHT22;27842;52.272;8.052;2022-10-15T08:44:22;13.60;99.90
40960;DHT22;27842;52.272;8.052;2022-10-15T08:46:53;13.60;99.90
40960;DHT22;27842;52.272;8.052;2022-10-15T08:49:32;13.60;99.90
40960;DHT22;27842;52.272;8.052;2022-10-15T08:52:52;13.70;99.90
40960;DHT22;27842;52.272;8.052;2022-10-15T08:55:00;13.70;99.90
40960;DHT22;27842;52.272;8.052;2022-10-15T08:57:45;13.80;99.90
40960;DHT22;27842;52.272;8.052;2022-10-15T09:00:22;13.80;99.90
40960;DHT22;27842;52.272;8.052;2022-10-15T09:03:08;14.00;99.90
40960;DHT22;27842;52.272;8.052;2022-10-15T09:14:14;14.10;99.90
40960;DHT22;27842;52.272;8.052;2022-10-15T09:16:43;14.20;99.90
40960;DHT22;27842;52.272;8.052;2022-10-15T09:19:16;14.20;99.90
40960;DHT22;27842;52.272;8.052;2022-10-15T09:21:43;14.20;99.90
40960;DHT22;27842;52.272;8.052;2022-10-15T09:24:12;14.20;99.90
40960;DHT22;27842;52.272;8.052;2022-10-15T09:43:35;14.40;99.90
40960;DHT22;27842;52.272;8.052;2022-10-15T09:46:02;14.40;99.90
40960;DHT22;27842;52.272;8.052;2022-10-15T09:48:40;14.40;99.90
40960;DHT22;27842;52.272;8.052;2022-10-15T09:51:22;14.40;99.90
40960;DHT22;27842;52.272;8.052;2022-10-15T09:56:37;14.50;99.90
40960;DHT22;27842;52.272;8.052;2022-10-15T09:59:04;14.50;99.90
40960;DHT22;27842;52.272;8.052;2022-10-15T10:01:31;14.50;99.90
40960;DHT22;27842;52.272;8.052;2022-10-15T10:04:17;14.50;99.90
40960;DHT22;27842;52.272;8.052;2022-10-15T10:06:49;14.50;99.90
40960;DHT22;27842;52.272;8.052;2022-10-15T10:09:19;14.60;99.90
40960;DHT22;27842;52.272;8.052;2022-10-15T10:11:50;14.60;99.90
40960;DHT22;27842;52.272;8.052;2022-10-15T10:14:27;14.60;99.90
40960;DHT22;27842;52.272;8.052;2022-10-15T10:19:29;14.70;99.90
40960;DHT22;27842;52.272;8.052;2022-10-15T10:22:05;14.70;99.90
40960;DHT22;27842;52.272;8.052;2022-10-15T10:24:36;14.80;99.90
40960;DHT22;27842;52.272;8.052;2022-10-15T10:27:02;14.80;99.90
40960;DHT22;27842;52.272;8.052;2022-10-15T10:29:29;14.80;99.90
40960;DHT22;27842;52.272;8.052;2022-10-15T10:31:56;14.80;99.90
40960;DHT22;27842;52.272;8.052;2022-10-15T10:34:30;14.80;99.90
40960;DHT22;27842;52.272;8.052;2022-10-15T10:36:57;14.80;99.90
40960;DHT22;27842;52.272;8.052;2022-10-15T10:39:28;14.90;99.90
40960;DHT22;27842;52.272;8.052;2022-10-15T10:41:57;14.90;99.90
40960;DHT22;27842;52.272;8.052;2022-10-15T10:44:31;14.90;99.90
40960;DHT22;27842;52.272;8.052;2022-10-15T10:47:09;14.90;99.90
40960;DHT22;27842;52.272;8.052;2022-10-15T10:49:42;14.90;99.90
40960;DHT22;27842;52.272;8.052;2022-10-15T10:52:26;14.90;99.90
40960;DHT22;27842;52.272;8.052;2022-10-15T10:55:05;14.90;99.90
40960;DHT22;27842;52.272;8.052;2022-10-15T11:00:44;15.00;99.90
40960;DHT22;27842;52.272;8.052;2022-10-15T11:03:39;15.10;99.90
40960;DHT22;27842;52.272;8.052;2022-10-15T11:06:15;15.10;99.90
40960;DHT22;27842;52.272;8.052;2022-10-15T11:14:42;15.30;99.90
40960;DHT22;27842;52.272;8.052;2022-10-15T11:25:59;15.50;99.90
40960;DHT22;27842;52.272;8.052;2022-10-15T11:29:15;15.60;99.90
40960;DHT22;27842;52.272;8.052;2022-10-15T11:40:00;15.80;99.90
40960;DHT22;27842;52.272;8.052;2022-10-15T11:42:52;15.90;99.90
40960;DHT22;27842;52.272;8.052;2022-10-15T11:51:15;16.00;99.90
40960;DHT22;27842;52.272;8.052;2022-10-15T11:53:49;16.00;99.90
40960;DHT22;27842;52.272;8.052;2022-10-15T11:56:25;16.10;99.90
40960;DHT22;27842;52.272;8.052;2022-10-15T12:01:47;16.10;99.90
40960;DHT22;27842;52.272;8.052;2022-10-15T12:05:04;16.20;99.90
40960;DHT22;27842;52.272;8.052;2022-10-15T12:07:15;16.20;99.90
40960;DHT22;27842;52.272;8.052;2022-10-15T12:09:46;16.30;99.90
40960;DHT22;27842;52.272;8.052;2022-10-15T12:15:51;16.40;99.90
40960;DHT22;27842;52.272;8.052;2022-10-15T12:20:45;16.60;99.90
40960;DHT22;27842;52.272;8.052;2022-10-15T12:23:38;16.60;99.90
40960;DHT22;27842;52.272;8.052;2022-10-15T12:26:29;16.60;99.90
40960;DHT22;27842;52.272;8.052;2022-10-15T12:28:57;16.70;99.90
40960;DHT22;27842;52.272;8.052;2022-10-15T12:31:24;16.70;99.90
40960;DHT22;27842;52.272;8.052;2022-10-15T12:33:55;16.70;99.90
40960;DHT22;27842;52.272;8.052;2022-10-15T12:36:22;16.70;99.90
40960;DHT22;27842;52.272;8.052;2022-10-15T12:38:56;16.70;99.90
40960;DHT22;27842;52.272;8.052;2022-10-15T12:44:26;16.60;99.90
40960;DHT22;27842;52.272;8.052;2022-10-15T12:46:50;16.70;99.90
40960;DHT22;27842;52.272;8.052;2022-10-15T12:51:51;16.60;99.90
40960;DHT22;27842;52.272;8.052;2022-10-15T12:54:41;16.60;99.90
40960;DHT22;27842;52.272;8.052;2022-10-15T13:00:00;16.50;99.90
40960;DHT22;27842;52.272;8.052;2022-10-15T13:05:03;16.40;99.90
40960;DHT22;27842;52.272;8.052;2022-10-15T13:07:31;16.40;99.90
40960;DHT22;27842;52.272;8.052;2022-10-15T13:10:01;16.40;99.90
40960;DHT22;27842;52.272;8.052;2022-10-15T13:12:27;16.40;99.90
40960;DHT22;27842;52.272;8.052;2022-10-15T13:15:01;16.40;99.90
40960;DHT22;27842;52.272;8.052;2022-10-15T13:17:29;16.30;99.90
40960;DHT22;27842;52.272;8.052;2022-10-15T13:20:03;16.30;99.90
40960;DHT22;27842;52.272;8.052;2022-10-15T13:22:31;16.30;99.90
40960;DHT22;27842;52.272;8.052;2022-10-15T13:24:59;16.30;99.90
40960;DHT22;27842;52.272;8.052;2022-10-15T13:27:30;16.30;99.90
40960;DHT22;27842;52.272;8.052;2022-10-15T13:32:30;16.20;99.90
40960;DHT22;27842;52.272;8.052;2022-10-15T13:34:58;16.20;99.90
40960;DHT22;27842;52.272;8.052;2022-10-15T13:37:32;16.10;99.90
40960;DHT22;27842;52.272;8.052;2022-10-15T13:39:59;16.10;99.90
40960;DHT22;27842;52.272;8.052;2022-10-15T13:42:26;16.10;99.90
40960;DHT22;27842;52.272;8.052;2022-10-15T13:45:17;16.10;99.90
40960;DHT22;27842;52.272;8.052;2022-10-15T13:47:51;16.10;99.90
40960;DHT22;27842;52.272;8.052;2022-10-15T13:50:29;16.10;99.90
40960;DHT22;27842;52.272;8.052;2022-10-15T13:52:59;16.00;99.90
40960;DHT22;27842;52.272;8.052;2022-10-15T13:55:31;16.00;99.90
40960;DHT22;27842;52.272;8.052;2022-10-15T14:03:35;16.00;99.90
40960;DHT22;27842;52.272;8.052;2022-10-15T14:06:24;15.90;99.90
40960;DHT22;27842;52.272;8.052;2022-10-15T14:08:53;15.90;99.90
40960;DHT22;27842;52.272;8.052;2022-10-15T14:11:20;15.90;99.90
40960;DHT22;27842;52.272;8.052;2022-10-15T14:13:48;15.90;99.90
40960;DHT22;27842;52.272;8.052;2022-10-15T14:18:56;15.90;99.90
40960;DHT22;27842;52.272;8.052;2022-10-15T14:21:23;15.90;99.90
40960;DHT22;27842;52.272;8.052;2022-10-15T14:24:18;15.90;99.90
40960;DHT22;27842;52.272;8.052;2022-10-15T14:26:45;15.80;99.90
40960;DHT22;27842;52.272;8.052;2022-10-15T14:31:47;15.90;99.90
40960;DHT22;27842;52.272;8.052;2022-10-15T14:36:58;15.90;99.90
40960;DHT22;27842;52.272;8.052;2022-10-15T14:39:32;15.80;99.90
40960;DHT22;27842;52.272;8.052;2022-10-15T14:42:02;15.90;99.90
40960;DHT22;27842;52.272;8.052;2022-10-15T14:44:43;15.80;99.90
40960;DHT22;27842;52.272;8.052;2022-10-15T14:47:24;15.80;99.90
40960;DHT22;27842;52.272;8.052;2022-10-15T14:49:54;15.90;99.90
40960;DHT22;27842;52.272;8.052;2022-10-15T14:52:20;15.90;99.90
40960;DHT22;27842;52.272;8.052;2022-10-15T14:55:05;15.90;99.90
40960;DHT22;27842;52.272;8.052;2022-10-15T14:57:37;15.80;99.90
40960;DHT22;27842;52.272;8.052;2022-10-15T15:02:39;15.90;99.90
40960;DHT22;27842;52.272;8.052;2022-10-15T15:07:38;15.90;99.90
40960;DHT22;27842;52.272;8.052;2022-10-15T15:10:05;15.90;99.90
40960;DHT22;27842;52.272;8.052;2022-10-15T15:12:32;15.90;99.90
40960;DHT22;27842;52.272;8.052;2022-10-15T15:14:58;15.90;99.90
40960;DHT22;27842;52.272;8.052;2022-10-15T15:17:26;15.90;99.90
40960;DHT22;27842;52.272;8.052;2022-10-15T15:19:54;15.90;99.90
40960;DHT22;27842;52.272;8.052;2022-10-15T15:24:50;15.90;99.90
40960;DHT22;27842;52.272;8.052;2022-10-15T15:27:27;15.90;99.90
40960;DHT22;27842;52.272;8.052;2022-10-15T15:29:54;16.00;99.90
40960;DHT22;27842;52.272;8.052;2022-10-15T15:32:22;16.00;99.90
40960;DHT22;27842;52.272;8.052;2022-10-15T15:34:48;15.90;99.90
40960;DHT22;27842;52.272;8.052;2022-10-15T15:37:20;16.00;99.90
40960;DHT22;27842;52.272;8.052;2022-10-15T15:39:46;16.00;99.90
40960;DHT22;27842;52.272;8.052;2022-10-15T15:42:14;16.00;99.90
40960;DHT22;27842;52.272;8.052;2022-10-15T15:44:41;16.00;99.90
40960;DHT22;27842;52.272;8.052;2022-10-15T15:47:07;16.00;99.90
40960;DHT22;27842;52.272;8.052;2022-10-15T15:49:33;16.00;99.90
40960;DHT22;27842;52.272;8.052;2022-10-15T15:51:59;16.00;99.90
40960;DHT22;27842;52.272;8.052;2022-10-15T15:54:25;16.00;99.90
40960;DHT22;27842;52.272;8.052;2022-10-15T15:56:50;16.00;99.90
40960;DHT22;27842;52.272;8.052;2022-10-15T15:59:16;16.00;99.90
40960;DHT22;27842;52.272;8.052;2022-10-15T16:01:44;16.00;99.90
40960;DHT22;27842;52.272;8.052;2022-10-15T16:04:10;16.00;99.90
40960;DHT22;27842;52.272;8.052;2022-10-15T16:06:37;16.00;99.90
40960;DHT22;27842;52.272;8.052;2022-10-15T16:09:03;16.00;99.90
40960;DHT22;27842;52.272;8.052;2022-10-15T16:11:30;16.00;99.90
40960;DHT22;27842;52.272;8.052;2022-10-15T16:13:57;16.00;99.90
40960;DHT22;27842;52.272;8.052;2022-10-15T16:16:23;16.00;99.90
40960;DHT22;27842;52.272;8.052;2022-10-15T16:18:49;16.00;99.90
40960;DHT22;27842;52.272;8.052;2022-10-15T16:21:24;16.00;99.90
40960;DHT22;27842;52.272;8.052;2022-10-15T16:23:50;16.00;99.90
40960;DHT22;27842;52.272;8.052;2022-10-15T16:26:16;16.00;99.90
40960;DHT22;27842;52.272;8.052;2022-10-15T16:28:42;16.00;99.90
40960;DHT22;27842;52.272;8.052;2022-10-15T16:31:21;16.00;99.90
40960;DHT22;27842;52.272;8.052;2022-10-15T16:33:47;16.00;99.90
40960;DHT22;27842;52.272;8.052;2022-10-15T16:36:14;16.00;99.90
40960;DHT22;27842;52.272;8.052;2022-10-15T16:38:41;16.00;99.90
40960;DHT22;27842;52.272;8.052;2022-10-15T16:41:08;16.00;99.90
40960;DHT22;27842;52.272;8.052;2022-10-15T16:43:34;16.00;99.90
40960;DHT22;27842;52.272;8.052;2022-10-15T16:46:00;16.00;99.90
40960;DHT22;27842;52.272;8.052;2022-10-15T16:48:31;16.00;99.90
40960;DHT22;27842;52.272;8.052;2022-10-15T16:51:05;16.00;99.90
40960;DHT22;27842;52.272;8.052;2022-10-15T16:53:31;16.00;99.90
40960;DHT22;27842;52.272;8.052;2022-10-15T16:56:03;16.00;99.90
40960;DHT22;27842;52.272;8.052;2022-10-15T16:58:30;16.00;99.90
40960;DHT22;27842;52.272;8.052;2022-10-15T17:01:00;16.00;99.90
40960;DHT22;27842;52.272;8.052;2022-10-15T17:03:26;16.00;99.90
40960;DHT22;27842;52.272;8.052;2022-10-15T17:05:58;16.00;99.90
40960;DHT22;27842;52.272;8.052;2022-10-15T17:08:28;16.00;99.90
40960;DHT22;27842;52.272;8.052;2022-10-15T17:10:55;16.00;99.90
40960;DHT22;27842;52.272;8.052;2022-10-15T17:13:21;16.00;99.90
40960;DHT22;27842;52.272;8.052;2022-10-15T17:15:47;16.00;99.90
40960;DHT22;27842;52.272;8.052;2022-10-15T17:18:13;16.00;99.90
40960;DHT22;27842;52.272;8.052;2022-10-15T17:20:46;16.00;99.90
40960;DHT22;27842;52.272;8.052;2022-10-15T17:23:12;16.00;99.90
40960;DHT22;27842;52.272;8.052;2022-10-15T17:25:39;16.00;99.90
40960;DHT22;27842;52.272;8.052;2022-10-15T17:28:05;16.00;99.90
40960;DHT22;27842;52.272;8.052;2022-10-15T17:30:36;16.00;99.90
40960;DHT22;27842;52.272;8.052;2022-10-15T17:33:05;16.00;99.90
40960;DHT22;27842;52.272;8.052;2022-10-15T17:35:35;16.00;99.90
40960;DHT22;27842;52.272;8.052;2022-10-15T17:38:01;16.00;99.90
40960;DHT22;27842;52.272;8.052;2022-10-15T17:40:26;16.00;99.90
40960;DHT22;27842;52.272;8.052;2022-10-15T17:42:52;15.90;99.90
40960;DHT22;27842;52.272;8.052;2022-10-15T17:45:21;16.00;99.90
40960;DHT22;27842;52.272;8.052;2022-10-15T17:47:47;15.90;99.90
40960;DHT22;27842;52.272;8.052;2022-10-15T17:50:12;15.90;99.90
40960;DHT22;27842;52.272;8.052;2022-10-15T17:52:39;15.90;99.90